Latest Flight | Flight Log | Data Trends | Login | Join FlightData.com!
Date Range From To
Export:
Flight Log - 4XCWO - Click on row to view flight. Click on header to sort.
Date Origin Dest Depart Arrive Hobbs Flight Time Flight Distance Fuel Fuel/hr Fuel/nm Altitude Gnd Speed
Thu, Apr 20, 2017 LLSD LLSD 07:07 08:13 1.09 hrs 0.78 hrs 89.08 nm 11.90 gal 10.97 gal/hr 0.13 gal/nm 2189 msl 113 kts
Thu, Apr 20, 2017 LLSD LLSD 07:03 07:06 0.05 hrs 0.00 hrs 0.00 nm 0.00 gal 0.00 gal/hr 0.00 gal/nm 0 msl 0 kts
Thu, Apr 20, 2017 LLSD LLSD 06:30 06:32 0.04 hrs 0.00 hrs 0.00 nm 0.00 gal 0.00 gal/hr 0.00 gal/nm 0 msl 0 kts
Sun, Apr 9, 2017 LLSD LLSD 14:00 14:05 0.09 hrs 0.00 hrs 0.00 nm 4.60 gal 54.12 gal/hr 0.00 gal/nm 0 msl 0 kts
Sun, Apr 9, 2017 LLSD LLSD 13:26 13:58 0.54 hrs 0.26 hrs 35.75 nm 4.40 gal 8.22 gal/hr 0.12 gal/nm 1236 msl 138 kts
Sun, Apr 9, 2017     13:24 13:25 0.02 hrs 0.00 hrs 0.00 nm 0.00 gal 0.00 gal/hr 0.00 gal/nm 0 msl 0 kts
Sun, Apr 9, 2017 LLHZ LLSD 09:15 09:32 0.29 hrs 0.08 hrs 7.85 nm 1.30 gal 4.56 gal/hr 0.17 gal/nm 1045 msl 94 kts
Sun, Apr 9, 2017     08:16 08:21 0.09 hrs 0.00 hrs 0.00 nm 0.00 gal 0.00 gal/hr 0.00 gal/nm 0 msl 0 kts
Sun, Apr 9, 2017 LLSD LLHZ 04:58 05:16 0.3 hrs 0.08 hrs 8.12 nm 1.60 gal 5.30 gal/hr 0.20 gal/nm 741 msl 108 kts
Sun, Apr 9, 2017 LLSD LLSD 04:52 04:56 0.07 hrs 0.00 hrs 0.00 nm 0.00 gal 0.00 gal/hr 0.00 gal/nm 0 msl 0 kts
Sat, Apr 8, 2017 LLET LLSD 12:07 13:32 1.42 hrs 1.23 hrs 189.74 nm 19.70 gal 13.89 gal/hr 0.10 gal/nm 7999 msl 153 kts
Sat, Apr 8, 2017 LLET LLET 12:02 12:04 0.04 hrs 0.00 hrs 0.00 nm 0.00 gal 0.00 gal/hr 0.00 gal/nm 0 msl 0 kts
Sat, Apr 8, 2017 LLSD LLET 06:10 07:35 1.4 hrs 1.17 hrs 186.35 nm 21.50 gal 15.34 gal/hr 0.12 gal/nm 11128 msl 159 kts
Sat, Apr 8, 2017 LLSD LLSD 05:57 06:01 0.07 hrs 0.00 hrs 0.00 nm 0.00 gal 0.00 gal/hr 0.00 gal/nm 0 msl 0 kts
Thu, Apr 6, 2017 LLHZ LLSD 11:59 12:33 0.57 hrs 0.33 hrs 42.52 nm 5.00 gal 8.80 gal/hr 0.12 gal/nm 2190 msl 131 kts
Thu, Apr 6, 2017     11:54 11:57 0.05 hrs 0.00 hrs 0.00 nm 0.00 gal 0.00 gal/hr 0.00 gal/nm 0 msl 0 kts
Thu, Apr 6, 2017     09:52 09:58 0.1 hrs 0.00 hrs 0.00 nm 0.30 gal 2.95 gal/hr 0.00 gal/nm 0 msl 0 kts
Thu, Apr 6, 2017     08:09 08:27 0.3 hrs 0.00 hrs 0.00 nm 0.00 gal 0.00 gal/hr 0.00 gal/nm 0 msl 0 kts
Thu, Apr 6, 2017 LLHZ LLHZ 07:58 08:03 0.09 hrs 0.00 hrs 0.00 nm 0.00 gal 0.00 gal/hr 0.00 gal/nm 0 msl 0 kts
Thu, Apr 6, 2017 LLHZ LLHZ 07:35 07:42 0.12 hrs 0.00 hrs 0.00 nm 0.30 gal 2.54 gal/hr 0.00 gal/nm 0 msl 0 kts
Thu, Apr 6, 2017 LLSD LLHZ 05:51 06:08 0.29 hrs 0.08 hrs 8.76 nm 1.70 gal 5.96 gal/hr 0.19 gal/nm 886 msl 105 kts
Thu, Apr 6, 2017 LLSD LLSD 05:43 05:47 0.07 hrs 0.00 hrs 0.00 nm 0.00 gal 0.00 gal/hr 0.00 gal/nm 0 msl 0 kts
Wed, Apr 5, 2017 LLHZ LLSD 12:09 13:33 1.39 hrs 1.08 hrs 147.72 nm 14.90 gal 10.76 gal/hr 0.10 gal/nm 5102 msl 136 kts
Mon, Apr 3, 2017 LLSD LLHZ 04:47 05:11 0.4 hrs 0.08 hrs 8.01 nm 2.00 gal 4.98 gal/hr 0.25 gal/nm 610 msl 96 kts
Mon, Apr 3, 2017     04:40 04:41 0.02 hrs 0.00 hrs 0.00 nm 0.00 gal 0.00 gal/hr 0.00 gal/nm 0 msl 0 kts
Wed, Mar 29, 2017 LLBS LLSD 14:12 14:44 0.54 hrs 0.42 hrs 60.04 nm 6.10 gal 11.40 gal/hr 0.10 gal/nm 2914 msl 144 kts
Wed, Mar 29, 2017 LLBS LLBS 13:22 13:34 0.2 hrs 0.13 hrs 15.11 nm 1.90 gal 9.42 gal/hr 0.13 gal/nm 1931 msl 113 kts
Wed, Mar 29, 2017 LLBS LLBS 13:19 13:21 0.04 hrs 0.00 hrs 0.00 nm 0.00 gal 0.00 gal/hr 0.00 gal/nm 0 msl 0 kts
Wed, Mar 29, 2017     11:30 11:43 0.22 hrs 0.00 hrs 0.00 nm 0.40 gal 1.83 gal/hr 0.00 gal/nm 0 msl 0 kts
Wed, Mar 29, 2017     11:21 11:24 0.05 hrs 0.00 hrs 0.00 nm 0.00 gal 0.00 gal/hr 0.00 gal/nm 0 msl 0 kts
Wed, Mar 29, 2017     11:08 11:10 0.04 hrs 0.00 hrs 0.00 nm 0.00 gal 0.00 gal/hr 0.00 gal/nm 0 msl 0 kts
Wed, Mar 29, 2017 LLBS LLBS 07:38 07:38 0 hrs 0.00 hrs 0.00 nm 8.20 gal 4920.00 gal/hr 0.00 gal/nm 0 msl 0 kts
Wed, Mar 29, 2017 LLSD LLBS 06:56 07:38 0.7 hrs 0.51 hrs 77.06 nm 8.20 gal 11.69 gal/hr 0.11 gal/nm 2550 msl 151 kts
Wed, Mar 29, 2017 LLSD LLSD 06:43 06:55 0.2 hrs 0.00 hrs 0.00 nm 0.00 gal 0.00 gal/hr 0.00 gal/nm 0 msl 0 kts
Wed, Mar 29, 2017     06:41 06:42 0.02 hrs 0.00 hrs 0.00 nm 0.00 gal 0.00 gal/hr 0.00 gal/nm 0 msl 0 kts
Mon, Mar 27, 2017 LLSD LLSD 14:24 14:24 0 hrs 0.00 hrs 0.00 nm 19.50 gal 11700.00 gal/hr 0.00 gal/nm 0 msl 0 kts
Sat, Mar 25, 2017 LCLK LLSD 13:04 14:24 1.34 hrs 1.07 hrs 182.71 nm 19.50 gal 14.61 gal/hr 0.11 gal/nm 7509 msl 171 kts
Sat, Mar 25, 2017     13:01 13:02 0.02 hrs 0.00 hrs 0.00 nm 0.00 gal 0.00 gal/hr 0.00 gal/nm 0 msl 0 kts
Sat, Mar 25, 2017 LLSD LCLK 05:57 07:20 1.39 hrs 1.17 hrs 185.03 nm 18.30 gal 13.21 gal/hr 0.10 gal/nm 6363 msl 158 kts
Sat, Mar 25, 2017 LLSD LLSD 05:49 05:54 0.09 hrs 0.00 hrs 0.00 nm 0.00 gal 0.00 gal/hr 0.00 gal/nm 0 msl 0 kts
Fri, Mar 24, 2017 LLHZ LLSD 08:35 08:50 0.25 hrs 0.13 hrs 13.40 nm 1.90 gal 7.55 gal/hr 0.14 gal/nm 1158 msl 106 kts
Fri, Mar 24, 2017     08:33 08:34 0.02 hrs 0.00 hrs 0.00 nm 0.00 gal 0.00 gal/hr 0.00 gal/nm 0 msl 0 kts
Fri, Mar 24, 2017     08:04 08:05 0.02 hrs 0.00 hrs 0.00 nm 0.00 gal 0.00 gal/hr 0.00 gal/nm 0 msl 0 kts
Mon, Mar 20, 2017 LLHZ LLHZ 05:47 06:08 0.34 hrs 0.00 hrs 0.00 nm 0.90 gal 2.69 gal/hr 0.00 gal/nm 0 msl 0 kts
Sun, Mar 19, 2017     11:59 12:01 0.04 hrs 0.00 hrs 0.00 nm 0.00 gal 0.00 gal/hr 0.00 gal/nm 0 msl 0 kts
Sun, Mar 19, 2017 LLHZ LLHZ 08:50 09:07 0.29 hrs 0.00 hrs 0.00 nm 0.00 gal 0.00 gal/hr 0.00 gal/nm 0 msl 0 kts
Sun, Mar 19, 2017 LLSD LLHZ 07:03 07:17 0.24 hrs 0.12 hrs 13.08 nm 2.00 gal 8.51 gal/hr 0.15 gal/nm 1668 msl 112 kts
Sun, Mar 19, 2017 LLSD LLSD 06:54 07:01 0.1 hrs 0.00 hrs 0.00 nm 0.00 gal 0.00 gal/hr 0.00 gal/nm 0 msl 0 kts
Thu, Mar 9, 2017 LLHZ LLSD 11:31 13:05 1.55 hrs 1.03 hrs 153.06 nm 17.10 gal 11.02 gal/hr 0.11 gal/nm 6131 msl 147 kts
Thu, Mar 9, 2017 LLHZ LLHZ 11:24 11:29 0.09 hrs 0.00 hrs 0.00 nm 0.00 gal 0.00 gal/hr 0.00 gal/nm 0 msl 0 kts
Thu, Mar 9, 2017 LLHZ LLHZ 07:46 08:05 0.32 hrs 0.00 hrs 0.00 nm 1.20 gal 3.77 gal/hr 0.00 gal/nm 0 msl 0 kts
Mon, Mar 6, 2017     11:54 12:01 0.12 hrs 0.00 hrs 0.00 nm 0.00 gal 0.00 gal/hr 0.00 gal/nm 0 msl 0 kts
Mon, Mar 6, 2017     11:35 11:39 0.07 hrs 0.00 hrs 0.00 nm 0.00 gal 0.00 gal/hr 0.00 gal/nm 0 msl 0 kts
Mon, Mar 6, 2017     09:34 09:42 0.14 hrs 0.00 hrs 0.00 nm 0.00 gal 0.00 gal/hr 0.00 gal/nm 0 msl 0 kts
Sun, Mar 5, 2017 LLSD LLHZ 06:10 06:25 0.25 hrs 0.09 hrs 9.44 nm 1.60 gal 6.36 gal/hr 0.17 gal/nm 700 msl 102 kts
Sun, Mar 5, 2017 LLSD LLSD 06:00 06:08 0.12 hrs 0.00 hrs 0.00 nm 0.00 gal 0.00 gal/hr 0.00 gal/nm 0 msl 0 kts
Mon, Feb 27, 2017 LLSD LLSD 13:51 13:51 0 hrs 0.00 hrs 0.00 nm 18.30 gal 10980.00 gal/hr 0.00 gal/nm 0 msl 0 kts
Mon, Feb 27, 2017 LLSD LLSD 13:51 13:51 0 hrs 0.00 hrs 0.00 nm 18.30 gal 10980.00 gal/hr 0.00 gal/nm 0 msl 0 kts
Thu, Feb 23, 2017 LCLK LLSD 12:31 13:51 1.32 hrs 1.12 hrs 186.67 nm 18.30 gal 13.88 gal/hr 0.10 gal/nm 7493 msl 167 kts
Thu, Feb 23, 2017     12:28 12:29 0.02 hrs 0.00 hrs 0.00 nm 0.00 gal 0.00 gal/hr 0.00 gal/nm 0 msl 0 kts
Thu, Feb 23, 2017 LLSD LCLK 06:50 08:19 1.49 hrs 1.28 hrs 199.65 nm 19.40 gal 13.06 gal/hr 0.10 gal/nm 6506 msl 156 kts
Thu, Feb 23, 2017     06:47 06:48 0.02 hrs 0.00 hrs 0.00 nm 0.00 gal 0.00 gal/hr 0.00 gal/nm 0 msl 0 kts
Thu, Feb 23, 2017 LLSD LLSD 06:30 06:39 0.15 hrs 0.00 hrs 0.00 nm 0.00 gal 0.00 gal/hr 0.00 gal/nm 0 msl 0 kts
Sun, Feb 19, 2017 LLET LLSD 13:01 14:14 1.22 hrs 1.11 hrs 184.49 nm 16.50 gal 13.54 gal/hr 0.09 gal/nm 5744 msl 166 kts
Sun, Feb 19, 2017     12:58 12:59 0.02 hrs 0.00 hrs 0.00 nm 0.00 gal 0.00 gal/hr 0.00 gal/nm 0 msl 0 kts
Sun, Feb 19, 2017 LLSD LLET 10:41 12:09 1.47 hrs 1.32 hrs 209.86 nm 19.70 gal 13.42 gal/hr 0.09 gal/nm 6697 msl 159 kts
Sun, Feb 19, 2017 LLSD LLSD 10:30 10:35 0.09 hrs 0.00 hrs 0.00 nm 0.00 gal 0.00 gal/hr 0.00 gal/nm 0 msl 0 kts
Sat, Feb 18, 2017 LLHZ LLSD 11:45 12:06 0.35 hrs 0.11 hrs 11.07 nm 2.00 gal 5.69 gal/hr 0.18 gal/nm 954 msl 102 kts
Sat, Feb 18, 2017     11:41 11:42 0.02 hrs 0.00 hrs 0.00 nm 0.00 gal 0.00 gal/hr 0.00 gal/nm 0 msl 0 kts
Sun, Feb 12, 2017 LLHZ LLHZ 11:18 11:21 0.04 hrs 0.00 hrs 0.00 nm 0.70 gal 20.00 gal/hr 0.00 gal/nm 0 msl 0 kts
Sun, Feb 12, 2017     11:05 11:17 0.2 hrs 0.00 hrs 0.00 nm 0.50 gal 2.48 gal/hr 0.00 gal/nm 0 msl 0 kts
Thu, Feb 2, 2017     09:49 09:49 0 hrs 0.00 hrs 0.00 nm 0.00 gal 0.00 gal/hr 0.00 gal/nm 0 msl 0 kts
Mon, Jan 30, 2017     09:48 09:49 0.02 hrs 0.00 hrs 0.00 nm 0.00 gal 0.00 gal/hr 0.00 gal/nm 0 msl 0 kts
Sun, Jan 29, 2017 LLHZ LLHZ 11:48 11:48 0 hrs 0.00 hrs 0.00 nm 5.10 gal 3060.00 gal/hr 0.00 gal/nm 0 msl 0 kts
Sun, Jan 29, 2017 LLHZ LLHZ 11:13 11:13 0 hrs 0.00 hrs 0.00 nm 0.00 gal 0.00 gal/hr 0.00 gal/nm 0 msl 0 kts
Sun, Jan 29, 2017 LLHZ LLHZ 10:42 11:13 0.5 hrs 0.00 hrs 0.00 nm 0.00 gal 0.00 gal/hr 0.00 gal/nm 0 msl 0 kts
Sun, Jan 29, 2017 LLHZ LLHZ 09:06 09:10 0.07 hrs 0.00 hrs 0.00 nm 0.00 gal 0.00 gal/hr 0.00 gal/nm 0 msl 0 kts
Wed, Jan 25, 2017 LLSD LLHZ 11:17 11:48 0.52 hrs 0.30 hrs 42.00 nm 5.10 gal 9.84 gal/hr 0.12 gal/nm 2070 msl 140 kts
Wed, Jan 25, 2017 LLSD LLSD 10:58 11:15 0.24 hrs 0.00 hrs 0.00 nm 0.00 gal 0.00 gal/hr 0.00 gal/nm 0 msl 0 kts
Thu, Jan 5, 2017 LLSD LLSD 14:12 14:12 0 hrs 0.00 hrs 0.00 nm 6.90 gal 4140.00 gal/hr 0.00 gal/nm 0 msl 0 kts
Sun, Dec 11, 2016 LLSD LLSD 13:25 14:12 0.79 hrs 0.38 hrs 52.24 nm 6.90 gal 8.79 gal/hr 0.13 gal/nm 6809 msl 139 kts
Sun, Dec 11, 2016 LLSD LLSD 13:17 13:23 0.1 hrs 0.00 hrs 0.00 nm 0.00 gal 0.00 gal/hr 0.00 gal/nm 0 msl 0 kts
Thu, Dec 8, 2016 LLET LLSD 14:11 15:54 1.7 hrs 1.26 hrs 189.00 nm 20.20 gal 11.87 gal/hr 0.11 gal/nm 7743 msl 150 kts
Thu, Dec 8, 2016 LLET LLET 14:08 14:10 0.04 hrs 0.00 hrs 0.00 nm 0.00 gal 0.00 gal/hr 0.00 gal/nm 0 msl 0 kts
Wed, Dec 7, 2016 LLSD LLSD 15:02 15:02 0 hrs 0.00 hrs 0.00 nm 15.60 gal 9360.00 gal/hr 0.00 gal/nm 0 msl 0 kts
Wed, Dec 7, 2016 LLSD LLET 13:30 15:04 1.55 hrs 1.24 hrs 199.98 nm 19.40 gal 12.50 gal/hr 0.10 gal/nm 6807 msl 161 kts
Wed, Dec 7, 2016 LLSD LLSD 13:20 13:29 0.15 hrs 0.00 hrs 0.00 nm 0.00 gal 0.00 gal/hr 0.00 gal/nm 0 msl 0 kts
Mon, Nov 28, 2016 LLET LLSD 13:49 15:02 1.22 hrs 1.10 hrs 181.66 nm 15.60 gal 12.80 gal/hr 0.09 gal/nm 6027 msl 165 kts
Mon, Nov 28, 2016 LLET LLET 13:44 13:47 0.05 hrs 0.00 hrs 0.00 nm 0.00 gal 0.00 gal/hr 0.00 gal/nm 0 msl 0 kts
Mon, Nov 28, 2016 LLSD LLET 06:20 08:05 1.74 hrs 1.49 hrs 215.24 nm 21.60 gal 12.45 gal/hr 0.10 gal/nm 6914 msl 144 kts
Mon, Nov 28, 2016 LLSD LLSD 06:04 06:18 0.22 hrs 0.00 hrs 0.00 nm 0.00 gal 0.00 gal/hr 0.00 gal/nm 0 msl 0 kts
Sun, Nov 6, 2016 LCLK LCLK 08:17 08:17 0 hrs 0.00 hrs 0.00 nm 22.20 gal 13320.00 gal/hr 0.00 gal/nm 0 msl 0 kts
Sun, Nov 6, 2016 LCLK LCLK 08:17 08:17 0 hrs 0.00 hrs 0.00 nm 22.20 gal 13320.00 gal/hr 0.00 gal/nm 0 msl 0 kts
Sat, Nov 5, 2016 LCLK LLSD 13:22 14:44 1.35 hrs 1.09 hrs 184.65 nm 17.70 gal 13.09 gal/hr 0.10 gal/nm 7526 msl 169 kts
Sat, Nov 5, 2016 LCLK LCLK 08:17 08:17 0 hrs 0.00 hrs 0.00 nm 22.20 gal 13320.00 gal/hr 0.00 gal/nm 0 msl 0 kts
Sat, Nov 5, 2016 LLSD LCLK 06:31 08:17 1.77 hrs 1.44 hrs 216.00 nm 22.20 gal 12.55 gal/hr 0.10 gal/nm 8502 msl 149 kts
Sat, Nov 5, 2016 LLSD LLSD 06:24 06:28 0.07 hrs 0.00 hrs 0.00 nm 0.00 gal 0.00 gal/hr 0.00 gal/nm 0 msl 0 kts
Fri, Nov 4, 2016 LLHZ LLSD 14:27 14:50 0.39 hrs 0.12 hrs 11.71 nm 1.80 gal 4.68 gal/hr 0.15 gal/nm 1040 msl 100 kts
Thu, Nov 3, 2016 LLHZ LLHZ 13:44 13:44 0 hrs 0.00 hrs 0.00 nm 0.40 gal 240.00 gal/hr 0.00 gal/nm 0 msl 0 kts
Wed, Nov 2, 2016 LLHZ LLHZ 13:35 13:44 0.15 hrs 0.00 hrs 0.00 nm 0.40 gal 2.64 gal/hr 0.00 gal/nm 0 msl 0 kts
Wed, Nov 2, 2016 LLHZ LLHZ 13:22 13:22 0 hrs 0.00 hrs 0.00 nm 0.00 gal 0.00 gal/hr 0.00 gal/nm 0 msl 0 kts
Wed, Nov 2, 2016 LLHZ LLHZ 13:19 13:22 0.05 hrs 0.00 hrs 0.00 nm 0.00 gal 0.00 gal/hr 0.00 gal/nm 0 msl 0 kts
Wed, Nov 2, 2016 LLHZ LLHZ 13:07 13:18 0.19 hrs 0.00 hrs 0.00 nm 0.00 gal 0.00 gal/hr 0.00 gal/nm 0 msl 0 kts
Wed, Nov 2, 2016 LLHZ LLHZ 12:36 13:06 0.49 hrs 0.00 hrs 0.00 nm 0.00 gal 0.00 gal/hr 0.00 gal/nm 0 msl 0 kts
Thu, Oct 27, 2016     08:27 08:27 0 hrs 0.00 hrs 0.00 nm 0.00 gal 0.00 gal/hr 0.00 gal/nm 0 msl 0 kts
Thu, Oct 27, 2016     08:27 08:27 0 hrs 0.00 hrs 0.00 nm 0.00 gal 0.00 gal/hr 0.00 gal/nm 0 msl 0 kts
Wed, Oct 26, 2016     11:33 11:34 0.02 hrs 0.00 hrs 0.00 nm 0.00 gal 0.00 gal/hr 0.00 gal/nm 0 msl 0 kts
Wed, Oct 26, 2016     11:14 11:15 0.02 hrs 0.00 hrs 0.00 nm 0.00 gal 0.00 gal/hr 0.00 gal/nm 0 msl 0 kts
Wed, Oct 26, 2016     11:08 11:10 0.04 hrs 0.00 hrs 0.00 nm 0.00 gal 0.00 gal/hr 0.00 gal/nm 0 msl 0 kts
Wed, Oct 26, 2016 LLHZ LLHZ 10:17 10:17 0 hrs 0.00 hrs 0.00 nm 0.50 gal 300.00 gal/hr 0.00 gal/nm 0 msl 0 kts
Wed, Oct 26, 2016     08:27 08:27 0 hrs 0.00 hrs 0.00 nm 0.00 gal 0.00 gal/hr 0.00 gal/nm 0 msl 0 kts
Wed, Oct 26, 2016     08:26 08:27 0.02 hrs 0.00 hrs 0.00 nm 0.00 gal 0.00 gal/hr 0.00 gal/nm 0 msl 0 kts
Wed, Oct 26, 2016     08:14 08:16 0.04 hrs 0.00 hrs 0.00 nm 0.00 gal 0.00 gal/hr 0.00 gal/nm 0 msl 0 kts
Wed, Oct 26, 2016 LLHZ LLHZ 07:30 07:32 0.04 hrs 0.00 hrs 0.00 nm 0.00 gal 0.00 gal/hr 0.00 gal/nm 0 msl 0 kts
Wed, Oct 26, 2016     06:46 06:50 0.07 hrs 0.00 hrs 0.00 nm 0.00 gal 0.00 gal/hr 0.00 gal/nm 0 msl 0 kts
Wed, Oct 26, 2016 LLHZ LLHZ 06:35 06:37 0.04 hrs 0.00 hrs 0.00 nm 0.10 gal 2.86 gal/hr 0.00 gal/nm 0 msl 0 kts
Wed, Oct 26, 2016     06:29 06:29 0 hrs 0.00 hrs 0.00 nm 0.00 gal 0.00 gal/hr 0.00 gal/nm 0 msl 0 kts
Wed, Oct 26, 2016     06:09 06:29 0.34 hrs 0.00 hrs 0.00 nm 0.00 gal 0.00 gal/hr 0.00 gal/nm 0 msl 0 kts
Wed, Oct 26, 2016     05:08 06:08 1 hrs 0.00 hrs 0.00 nm 0.00 gal 0.00 gal/hr 0.00 gal/nm 0 msl 0 kts
Tue, Oct 25, 2016 LLHZ LLHZ 11:52 12:46 0.9 hrs 0.72 hrs 97.62 nm 10.20 gal 11.31 gal/hr 0.10 gal/nm 2147 msl 136 kts
Tue, Oct 25, 2016 LLHZ LLHZ 10:05 10:17 0.19 hrs 0.00 hrs 0.00 nm 0.50 gal 2.70 gal/hr 0.00 gal/nm 0 msl 0 kts
Thu, Oct 20, 2016 LLSD LLHZ 04:51 05:19 0.47 hrs 0.11 hrs 11.99 nm 2.50 gal 5.34 gal/hr 0.21 gal/nm 954 msl 110 kts
Thu, Oct 20, 2016 LLSD LLSD 04:46 04:48 0.04 hrs 0.00 hrs 0.00 nm 0.00 gal 0.00 gal/hr 0.00 gal/nm 0 msl 0 kts
Wed, Oct 19, 2016 LGRP LLSD 11:13 14:00 2.75 hrs 2.55 hrs 443.24 nm 38.60 gal 14.03 gal/hr 0.09 gal/nm 8663 msl 173 kts
Wed, Oct 19, 2016 LGRP LGRP 11:09 11:11 0.04 hrs 0.00 hrs 0.00 nm 0.00 gal 0.00 gal/hr 0.00 gal/nm 0 msl 0 kts
Wed, Oct 19, 2016     10:06 10:08 0.04 hrs 0.00 hrs 0.00 nm 0.00 gal 0.00 gal/hr 0.00 gal/nm 0 msl 0 kts
Wed, Oct 19, 2016 LGRP LGRP 08:59 09:32 0.55 hrs 0.00 hrs 0.00 nm 0.00 gal 0.00 gal/hr 0.00 gal/nm 0 msl 0 kts
Sat, Oct 15, 2016 LGRP LGRP 15:29 15:29 0 hrs 0.00 hrs 0.00 nm 0.00 gal 0.00 gal/hr 0.00 gal/nm 0 msl 0 kts
Sat, Oct 15, 2016 LGRP LGRP 15:27 15:29 0.04 hrs 0.00 hrs 0.00 nm 0.00 gal 0.00 gal/hr 0.00 gal/nm 0 msl 0 kts
Fri, Oct 14, 2016 LLSD LLSD 05:35 05:35 0 hrs 0.00 hrs 0.00 nm 0.00 gal 0.00 gal/hr 0.00 gal/nm 0 msl 0 kts
Fri, Oct 14, 2016 LLSD LLSD 05:35 05:35 0 hrs 0.00 hrs 0.00 nm 0.00 gal 0.00 gal/hr 0.00 gal/nm 0 msl 0 kts
Fri, Oct 14, 2016 LLSD LLSD 05:35 05:35 0 hrs 0.00 hrs 0.00 nm 0.00 gal 0.00 gal/hr 0.00 gal/nm 0 msl 0 kts
Thu, Oct 13, 2016 LGGG LGRP 12:35 13:44 1.15 hrs 1.12 hrs 164.00 nm 44.40 gal 38.55 gal/hr 0.27 gal/nm 8890 msl 146 kts
Thu, Oct 13, 2016 LLSD LGGG 10:27 12:34 2.1 hrs 1.94 hrs 300.59 nm 29.60 gal 14.08 gal/hr 0.10 gal/nm 8510 msl 154 kts
Thu, Oct 13, 2016     10:23 10:24 0.02 hrs 0.00 hrs 0.00 nm 0.00 gal 0.00 gal/hr 0.00 gal/nm 0 msl 0 kts
Thu, Oct 13, 2016 LLSD LLSD 09:54 10:16 0.37 hrs 0.00 hrs 0.00 nm 0.80 gal 2.17 gal/hr 0.00 gal/nm 0 msl 0 kts
Thu, Oct 13, 2016 LLSD LLSD 09:49 09:52 0.05 hrs 0.00 hrs 0.00 nm 0.00 gal 0.00 gal/hr 0.00 gal/nm 0 msl 0 kts
Thu, Oct 13, 2016     09:47 09:47 0.02 hrs 0.00 hrs 0.00 nm 0.00 gal 0.00 gal/hr 0.00 gal/nm 0 msl 0 kts
Thu, Oct 13, 2016 LLSD LLSD 05:30 05:35 0.09 hrs 0.00 hrs 0.00 nm 0.00 gal 0.00 gal/hr 0.00 gal/nm 0 msl 0 kts
Mon, Oct 10, 2016     11:31 11:32 0.02 hrs 0.00 hrs 0.00 nm 0.00 gal 0.00 gal/hr 0.00 gal/nm 0 msl 0 kts
Mon, Oct 10, 2016     11:27 11:30 0.02 hrs 0.00 hrs 0.00 nm 0.10 gal 5.45 gal/hr 0.00 gal/nm 0 msl 0 kts
Mon, Oct 10, 2016     11:24 11:25 0.02 hrs 0.00 hrs 0.00 nm 0.00 gal 0.00 gal/hr 0.00 gal/nm 0 msl 0 kts
Thu, Sep 15, 2016     11:51 11:51 0 hrs 0.00 hrs 0.00 nm 0.00 gal 0.00 gal/hr 0.00 gal/nm 0 msl 0 kts
Wed, Sep 7, 2016     11:51 11:51 0.02 hrs 0.00 hrs 0.00 nm 0.00 gal 0.00 gal/hr 0.00 gal/nm 0 msl 0 kts
Tue, Sep 6, 2016 LLSD LLSD 13:34 13:34 0 hrs 0.00 hrs 0.00 nm 49.50 gal 29700.00 gal/hr 0.00 gal/nm 0 msl 0 kts
Tue, Sep 6, 2016 LGSM LLSD 09:54 13:34 3.64 hrs 3.43 hrs 562.66 nm 49.50 gal 13.62 gal/hr 0.09 gal/nm 6530 msl 164 kts
Tue, Sep 6, 2016 LGSM LGSM 09:49 09:52 0.05 hrs 0.00 hrs 0.00 nm 0.00 gal 0.00 gal/hr 0.00 gal/nm 0 msl 0 kts
Tue, Sep 6, 2016 LGSM LGSM 09:30 09:33 0.07 hrs 0.00 hrs 0.00 nm 0.00 gal 0.00 gal/hr 0.00 gal/nm 0 msl 0 kts
Tue, Sep 6, 2016 LGTS LGSM 06:47 08:55 2.12 hrs 1.87 hrs 290.06 nm 25.90 gal 12.23 gal/hr 0.09 gal/nm 6624 msl 155 kts
Tue, Sep 6, 2016     06:44 06:45 0.02 hrs 0.00 hrs 0.00 nm 0.00 gal 0.00 gal/hr 0.00 gal/nm 0 msl 0 kts
Tue, Sep 6, 2016 LGTS LGTS 06:37 06:43 0.1 hrs 0.00 hrs 0.00 nm 0.00 gal 0.00 gal/hr 0.00 gal/nm 0 msl 0 kts
Sun, Sep 4, 2016 LGSM LGTS 11:22 13:22 2 hrs 1.88 hrs 278.47 nm 24.70 gal 12.34 gal/hr 0.09 gal/nm 6578 msl 147 kts
Sun, Sep 4, 2016 LGSM LGSM 11:16 11:20 0.07 hrs 0.00 hrs 0.00 nm 0.00 gal 0.00 gal/hr 0.00 gal/nm 0 msl 0 kts
Sun, Sep 4, 2016     11:13 11:14 0.02 hrs 0.00 hrs 0.00 nm 0.00 gal 0.00 gal/hr 0.00 gal/nm 0 msl 0 kts
Sun, Sep 4, 2016 LGKO LGSM 10:10 10:37 0.45 hrs 0.34 hrs 46.73 nm 4.90 gal 10.85 gal/hr 0.10 gal/nm 3104 msl 136 kts
Sun, Sep 4, 2016 LGKO LGKO 10:06 10:09 0.05 hrs 0.00 hrs 0.00 nm 0.00 gal 0.00 gal/hr 0.00 gal/nm 0 msl 0 kts
Fri, Sep 2, 2016 LGIK LGKO 11:37 12:12 0.59 hrs 0.47 hrs 68.71 nm 6.20 gal 10.60 gal/hr 0.09 gal/nm 3223 msl 147 kts
Fri, Sep 2, 2016 LGIK LGIK 11:31 11:34 0.05 hrs 0.00 hrs 0.00 nm 0.00 gal 0.00 gal/hr 0.00 gal/nm 0 msl 0 kts
Tue, Aug 30, 2016 LGSM LGIK 11:41 12:03 0.37 hrs 0.26 hrs 34.19 nm 4.40 gal 11.95 gal/hr 0.13 gal/nm 4128 msl 132 kts
Tue, Aug 30, 2016 LGSM LGSM 11:34 11:35 0.04 hrs 0.00 hrs 0.00 nm 0.00 gal 0.00 gal/hr 0.00 gal/nm 0 msl 0 kts
Tue, Aug 30, 2016 LLSD LGSM 06:02 09:48 3.74 hrs 3.50 hrs 557.76 nm 47.60 gal 12.74 gal/hr 0.09 gal/nm 8287 msl 159 kts
Tue, Aug 30, 2016     05:58 05:59 0.02 hrs 0.00 hrs 0.00 nm 0.00 gal 0.00 gal/hr 0.00 gal/nm 0 msl 0 kts
Tue, Aug 30, 2016 LLSD LLSD 05:49 05:56 0.12 hrs 0.00 hrs 0.00 nm 0.00 gal 0.00 gal/hr 0.00 gal/nm 0 msl 0 kts
Sat, Aug 27, 2016 LCLK LLSD 10:38 12:10 1.52 hrs 1.21 hrs 188.03 nm 20.10 gal 13.24 gal/hr 0.11 gal/nm 7509 msl 155 kts
Sat, Aug 27, 2016 LCLK LCLK 10:34 10:37 0.05 hrs 0.00 hrs 0.00 nm 0.00 gal 0.00 gal/hr 0.00 gal/nm 0 msl 0 kts
Thu, Aug 25, 2016 LLSD LCLK 10:41 12:03 1.37 hrs 1.17 hrs 187.73 nm 21.30 gal 15.57 gal/hr 0.11 gal/nm 6644 msl 160 kts
Thu, Aug 25, 2016 LLSD LLSD 10:35 10:40 0.07 hrs 0.00 hrs 0.00 nm 0.00 gal 0.00 gal/hr 0.00 gal/nm 0 msl 0 kts
Sat, Aug 20, 2016 LLRD LLSD 13:33 14:05 0.54 hrs 0.38 hrs 55.81 nm 5.60 gal 10.47 gal/hr 0.10 gal/nm 2188 msl 145 kts
Sat, Aug 20, 2016     13:28 13:29 0.02 hrs 0.00 hrs 0.00 nm 0.00 gal 0.00 gal/hr 0.00 gal/nm 0 msl 0 kts
Fri, Aug 19, 2016 LLSD LLRD 15:06 15:35 0.49 hrs 0.39 hrs 54.61 nm 5.70 gal 11.75 gal/hr 0.10 gal/nm 1796 msl 139 kts
Fri, Aug 19, 2016 LLSD LLSD 14:59 15:04 0.09 hrs 0.00 hrs 0.00 nm 0.00 gal 0.00 gal/hr 0.00 gal/nm 0 msl 0 kts
Sat, Aug 13, 2016     14:51 14:51 0 hrs 0.00 hrs 0.00 nm 0.00 gal 0.00 gal/hr 0.00 gal/nm 0 msl 0 kts
Fri, Aug 12, 2016     14:50 14:51 0.02 hrs 0.00 hrs 0.00 nm 0.00 gal 0.00 gal/hr 0.00 gal/nm 0 msl 0 kts
Fri, Aug 12, 2016 LCLK LLSD 13:09 14:25 1.25 hrs 1.10 hrs 181.57 nm 17.20 gal 13.74 gal/hr 0.09 gal/nm 7617 msl 165 kts
Fri, Aug 12, 2016 LLSD LCLK 06:32 08:00 1.45 hrs 1.17 hrs 183.78 nm 17.90 gal 12.33 gal/hr 0.10 gal/nm 6507 msl 157 kts
Sat, Aug 6, 2016 LLRD LLRD 15:32 15:32 0 hrs 0.00 hrs 0.00 nm 5.40 gal 3240.00 gal/hr 0.00 gal/nm 0 msl 0 kts
Sat, Aug 6, 2016 LLRD LLSD 13:25 13:55 0.5 hrs 0.36 hrs 51.58 nm 5.30 gal 10.56 gal/hr 0.10 gal/nm 2137 msl 143 kts
Fri, Aug 5, 2016 LLSD LLRD 15:04 15:32 0.47 hrs 0.38 hrs 55.17 nm 5.40 gal 11.53 gal/hr 0.10 gal/nm 1688 msl 147 kts
Fri, Aug 5, 2016 LLSD LLSD 14:59 15:01 0.04 hrs 0.00 hrs 0.00 nm 0.00 gal 0.00 gal/hr 0.00 gal/nm 0 msl 0 kts
Fri, Aug 5, 2016 LLSD LLSD 11:05 12:32 1.44 hrs 1.11 hrs 145.26 nm 16.00 gal 11.15 gal/hr 0.11 gal/nm 5189 msl 131 kts
Fri, Aug 5, 2016 LLSD LLSD 10:51 11:04 0.2 hrs 0.00 hrs 0.00 nm 0.00 gal 0.00 gal/hr 0.00 gal/nm 0 msl 0 kts
Sun, Jul 24, 2016 LLRD LLSD 12:48 13:17 0.49 hrs 0.30 hrs 48.99 nm 5.30 gal 10.93 gal/hr 0.11 gal/nm 2236 msl 163 kts
Sun, Jul 24, 2016 LLRD LLRD 12:22 12:22 0 hrs 0.00 hrs 0.00 nm 16.90 gal 10140.00 gal/hr 0.00 gal/nm 0 msl 0 kts
Sun, Jul 24, 2016 LCPH LLRD 10:58 12:22 1.4 hrs 1.26 hrs 208.38 nm 16.90 gal 12.06 gal/hr 0.08 gal/nm 7520 msl 165 kts
Sun, Jul 24, 2016     10:49 10:49 0 hrs 0.00 hrs 0.00 nm 0.00 gal 0.00 gal/hr 0.00 gal/nm 0 msl 0 kts
Sun, Jul 24, 2016     10:48 10:49 0.02 hrs 0.00 hrs 0.00 nm 0.00 gal 0.00 gal/hr 0.00 gal/nm 0 msl 0 kts
Fri, Jul 22, 2016 LLRD LCPH 07:33 09:01 1.47 hrs 1.28 hrs 196.92 nm 18.00 gal 12.26 gal/hr 0.09 gal/nm 6542 msl 153 kts
Fri, Jul 22, 2016 LLSD LLRD 05:55 06:32 0.6 hrs 0.39 hrs 55.38 nm 6.20 gal 10.30 gal/hr 0.11 gal/nm 1631 msl 141 kts
Thu, Jul 21, 2016     11:50 11:50 0 hrs 0.00 hrs 0.00 nm 0.00 gal 0.00 gal/hr 0.00 gal/nm 0 msl 0 kts
Thu, Jul 21, 2016     11:49 11:50 0.02 hrs 0.00 hrs 0.00 nm 0.00 gal 0.00 gal/hr 0.00 gal/nm 0 msl 0 kts
Sat, Jul 16, 2016 LLHZ LLHZ 08:32 08:32 0 hrs 0.00 hrs 0.00 nm 1.00 gal 600.00 gal/hr 0.00 gal/nm 0 msl 0 kts
Fri, Jul 15, 2016 LLHZ LLSD 10:53 11:10 0.29 hrs 0.13 hrs 16.79 nm 2.10 gal 7.37 gal/hr 0.13 gal/nm 1372 msl 125 kts
Fri, Jul 15, 2016 LLHZ LLHZ 08:23 08:32 0.15 hrs 0.00 hrs 0.00 nm 1.00 gal 6.59 gal/hr 0.00 gal/nm 0 msl 0 kts
Fri, Jul 15, 2016     08:12 08:13 0.02 hrs 0.00 hrs 0.00 nm 0.00 gal 0.00 gal/hr 0.00 gal/nm 0 msl 0 kts
Fri, Jul 15, 2016 LLHZ LLHZ 05:38 05:59 0.35 hrs 0.00 hrs 0.00 nm 1.60 gal 4.55 gal/hr 0.00 gal/nm 0 msl 0 kts
Thu, Jul 14, 2016 LLHZ LLHZ 13:13 13:25 0.2 hrs 0.00 hrs 0.00 nm 0.60 gal 2.98 gal/hr 0.00 gal/nm 0 msl 0 kts
Thu, Jul 14, 2016     13:09 13:10 0.02 hrs 0.00 hrs 0.00 nm 0.00 gal 0.00 gal/hr 0.00 gal/nm 0 msl 0 kts
Fri, Jul 1, 2016 LLHZ LLHZ 04:53 04:53 0 hrs 0.00 hrs 0.00 nm 0.30 gal 180.00 gal/hr 0.00 gal/nm 0 msl 0 kts
Thu, Jun 30, 2016 LLHZ LLHZ 13:57 14:13 0.27 hrs 0.00 hrs 0.00 nm 0.90 gal 3.35 gal/hr 0.00 gal/nm 0 msl 0 kts
Mon, Jun 27, 2016 LLHZ LLHZ 04:53 04:53 0 hrs 0.00 hrs 0.00 nm 0.30 gal 180.00 gal/hr 0.00 gal/nm 0 msl 0 kts
Sun, Jun 26, 2016 LLHZ LLHZ 04:46 04:53 0.12 hrs 0.00 hrs 0.00 nm 0.30 gal 2.54 gal/hr 0.00 gal/nm 0 msl 0 kts
Sat, Jun 25, 2016     15:10 15:11 0.02 hrs 0.00 hrs 0.00 nm 0.00 gal 0.00 gal/hr 0.00 gal/nm 0 msl 0 kts
Sat, Jun 25, 2016 LLSD LLHZ 14:52 15:04 0.2 hrs 0.08 hrs 7.83 nm 1.30 gal 6.45 gal/hr 0.17 gal/nm 1051 msl 103 kts
Sat, Jun 25, 2016 LLSD LLSD 14:34 14:34 0 hrs 0.00 hrs 0.00 nm 16.40 gal 9840.00 gal/hr 0.00 gal/nm 0 msl 0 kts
Sat, Jun 25, 2016 LCLK LLSD 13:09 14:34 1.4 hrs 1.18 hrs 182.18 nm 16.40 gal 11.70 gal/hr 0.09 gal/nm 7672 msl 153 kts
Sat, Jun 25, 2016 LCLK LCLK 13:02 13:07 0.09 hrs 0.00 hrs 0.00 nm 0.00 gal 0.00 gal/hr 0.00 gal/nm 0 msl 0 kts
Sat, Jun 25, 2016 LLSD LCLK 06:04 07:40 1.59 hrs 1.27 hrs 191.07 nm 18.80 gal 11.86 gal/hr 0.10 gal/nm 6596 msl 151 kts
Sat, Jun 25, 2016 LLSD LLSD 06:00 06:03 0.04 hrs 0.00 hrs 0.00 nm 0.00 gal 0.00 gal/hr 0.00 gal/nm 0 msl 0 kts
Mon, Jun 13, 2016     10:07 10:08 0.02 hrs 0.00 hrs 0.00 nm 0.00 gal 0.00 gal/hr 0.00 gal/nm 0 msl 0 kts
Sat, Jun 4, 2016 LLSD LLSD 08:31 09:55 1.39 hrs 1.13 hrs 148.96 nm 15.10 gal 10.90 gal/hr 0.10 gal/nm 4251 msl 131 kts
Sat, Jun 4, 2016 LLSD LLSD 08:25 08:28 0.04 hrs 0.00 hrs 0.00 nm 0.00 gal 0.00 gal/hr 0.00 gal/nm 0 msl 0 kts
Sun, May 29, 2016     11:03 11:04 0.02 hrs 0.00 hrs 0.00 nm 0.00 gal 0.00 gal/hr 0.00 gal/nm 0 msl 0 kts
Fri, May 27, 2016 LLSD LLSD 14:52 16:54 2.02 hrs 1.45 hrs 195.34 nm 24.80 gal 12.29 gal/hr 0.13 gal/nm 6072 msl 134 kts
Fri, May 27, 2016 LLSD LLSD 14:42 14:50 0.14 hrs 0.00 hrs 0.00 nm 0.00 gal 0.00 gal/hr 0.00 gal/nm 0 msl 0 kts
Fri, May 20, 2016 LLSD LLSD 14:55 16:43 1.79 hrs 1.53 hrs 212.41 nm 24.20 gal 13.56 gal/hr 0.11 gal/nm 3054 msl 138 kts
Fri, May 20, 2016 LLSD LLSD 14:45 14:45 0 hrs 0.00 hrs 0.00 nm 0.00 gal 0.00 gal/hr 0.00 gal/nm 0 msl 0 kts
Fri, May 20, 2016 LLSD LLSD 14:37 14:45 0.14 hrs 0.02 hrs 328.60 nm 0.00 gal 0.00 gal/hr 0.00 gal/nm -24 msl 19716 kts
Thu, May 19, 2016 LLSD LLSD 14:23 16:08 1.75 hrs 1.46 hrs 186.99 nm 17.20 gal 9.82 gal/hr 0.09 gal/nm 6101 msl 128 kts
Thu, May 19, 2016     13:42 13:43 0.02 hrs 0.00 hrs 0.00 nm 0.00 gal 0.00 gal/hr 0.00 gal/nm 0 msl 0 kts
Mon, May 16, 2016 LLSD LLSD 15:33 15:33 0 hrs 0.00 hrs 0.00 nm 18.10 gal 10860.00 gal/hr 0.00 gal/nm 0 msl 0 kts
Mon, May 16, 2016 LLSD LLSD 13:58 15:33 1.57 hrs 1.28 hrs 163.57 nm 18.10 gal 11.54 gal/hr 0.11 gal/nm 5453 msl 128 kts
Mon, May 16, 2016 LLSD LLSD 13:52 13:56 0.07 hrs 0.00 hrs 0.00 nm 0.00 gal 0.00 gal/hr 0.00 gal/nm 0 msl 0 kts
Fri, May 13, 2016 LLSD LLSD 14:59 16:16 1.29 hrs 1.07 hrs 143.07 nm 16.20 gal 12.61 gal/hr 0.11 gal/nm 4067 msl 134 kts
Fri, May 13, 2016 LLSD LLSD 14:44 14:56 0.2 hrs 0.00 hrs 0.00 nm 0.00 gal 0.00 gal/hr 0.00 gal/nm 0 msl 0 kts
Mon, May 9, 2016 LCLK LLSD 08:38 10:08 1.5 hrs 1.28 hrs 192.82 nm 20.20 gal 13.45 gal/hr 0.10 gal/nm 7508 msl 151 kts
Mon, May 9, 2016 LCLK LCLK 08:33 08:36 0.05 hrs 0.00 hrs 0.00 nm 0.00 gal 0.00 gal/hr 0.00 gal/nm 0 msl 0 kts
Sun, May 8, 2016 LLSD LCLK 05:23 06:48 1.4 hrs 1.19 hrs 193.91 nm 19.30 gal 13.77 gal/hr 0.10 gal/nm 6506 msl 162 kts
Sun, May 8, 2016 LLSD LLSD 05:18 05:21 0.05 hrs 0.00 hrs 0.00 nm 0.00 gal 0.00 gal/hr 0.00 gal/nm 0 msl 0 kts
Sat, May 7, 2016 LLSD LLSD 05:38 07:02 1.4 hrs 1.15 hrs 153.50 nm 18.10 gal 12.91 gal/hr 0.12 gal/nm 5067 msl 133 kts
Sat, May 7, 2016     05:35 05:36 0.02 hrs 0.00 hrs 0.00 nm 0.00 gal 0.00 gal/hr 0.00 gal/nm 0 msl 0 kts
Sat, May 7, 2016 LLSD LLSD 05:29 05:29 0 hrs 0.00 hrs 0.00 nm 0.00 gal 0.00 gal/hr 0.00 gal/nm 0 msl 0 kts
Sat, May 7, 2016 LLSD LLSD 05:23 05:29 0.1 hrs 0.00 hrs 0.00 nm 0.00 gal 0.00 gal/hr 0.00 gal/nm 0 msl 0 kts
Thu, May 5, 2016 LLSD LLSD 16:14 16:14 0 hrs 0.00 hrs 0.00 nm 19.00 gal 11400.00 gal/hr 0.00 gal/nm 0 msl 0 kts
Wed, Apr 27, 2016 LLET LLSD 14:44 16:14 1.49 hrs 1.33 hrs 187.79 nm 19.00 gal 12.79 gal/hr 0.10 gal/nm 4034 msl 141 kts
Wed, Apr 27, 2016 LLET LLET 14:38 14:41 0.05 hrs 0.00 hrs 0.00 nm 0.00 gal 0.00 gal/hr 0.00 gal/nm 0 msl 0 kts
Tue, Apr 26, 2016 LLSD LLET 07:17 08:53 1.59 hrs 1.35 hrs 188.29 nm 20.50 gal 12.93 gal/hr 0.11 gal/nm 4167 msl 139 kts
Tue, Apr 26, 2016 LLSD LLSD 07:10 07:15 0.09 hrs 0.00 hrs 0.00 nm 0.00 gal 0.00 gal/hr 0.00 gal/nm 0 msl 0 kts
Mon, Apr 18, 2016 LLSD LLSD 09:20 09:20 0 hrs 0.00 hrs 0.00 nm 37.20 gal 22320.00 gal/hr 0.00 gal/nm 0 msl 0 kts
Mon, Apr 18, 2016 LLSD LLSD 09:20 09:20 0 hrs 0.00 hrs 0.00 nm 37.20 gal 22320.00 gal/hr 0.00 gal/nm 0 msl 0 kts
Fri, Apr 15, 2016 LGRP LLSD 06:37 09:20 2.7 hrs 2.54 hrs 439.34 nm 37.20 gal 13.77 gal/hr 0.08 gal/nm 7524 msl 172 kts
Fri, Apr 15, 2016     06:33 06:34 0.02 hrs 0.00 hrs 0.00 nm 0.00 gal 0.00 gal/hr 0.00 gal/nm 0 msl 0 kts
Thu, Apr 14, 2016 LICR LGRP 07:55 12:05 4.14 hrs 3.88 hrs 721.43 nm 49.30 gal 11.92 gal/hr 0.07 gal/nm 12023 msl 185 kts
Thu, Apr 14, 2016 LICR LICR 07:27 07:30 0.05 hrs 0.00 hrs 0.00 nm 0.00 gal 0.00 gal/hr 0.00 gal/nm 0 msl 0 kts
Thu, Apr 14, 2016 LICR LICR 07:21 07:23 0.04 hrs 0.00 hrs 0.00 nm 0.00 gal 0.00 gal/hr 0.00 gal/nm 0 msl 0 kts
Wed, Apr 13, 2016 LFMV LICR 08:20 12:07 3.77 hrs 3.55 hrs 635.84 nm 48.50 gal 12.87 gal/hr 0.08 gal/nm 12003 msl 178 kts
Wed, Apr 13, 2016 LFMV LFMV 08:11 08:18 0.12 hrs 0.00 hrs 0.00 nm 0.00 gal 0.00 gal/hr 0.00 gal/nm 0 msl 0 kts
Tue, Apr 12, 2016     06:49 06:49 0 hrs 0.00 hrs 0.00 nm 0.10 gal 60.00 gal/hr 0.00 gal/nm 0 msl 0 kts
Mon, Apr 11, 2016 LFMV LFMV 13:54 13:56 0.04 hrs 0.00 hrs 0.00 nm 0.10 gal 2.86 gal/hr 0.00 gal/nm 0 msl 0 kts
          108.91 hrs 78.76 hrs 12476.01 nm 1578.80 gal